CheckWX is a tool to help pilots better visualize weather data.  It is not intended as a substitute for an official pre-flight weather briefing.

09:44:49 UTC

KVOK METAR
Volk Field Airport
Camp Douglas, Wisconsin, USA
Current

49 mins ago

KVOK 290856Z AUTO 29003KT 10SM CLR M15/M19 A3014 RMK AO2 SLP228 T11501191 50000
Observed
Feb-29 @ 08:56 UTC
Wind
  • 290° at 3 KTS
Visibility
10 SM
Flight Rules
VFR
Cloud Levels
  • Clear skies
Temperature
-15°C / 5°F
Dewpoint
-19°C / -2°F
Humidity
72%
Altimeter
30.14" Hg
Pressure
1020.62 hPa
Previous

2 hours ago

KVOK 290756Z AUTO 28005KT 10SM CLR M14/M19 A3015 RMK AO2 SLP231 T11421187
Observed
Feb-29 @ 07:56 UTC
Wind
  • 280° at 5 KTS
Visibility
10 SM
Flight Rules
VFR
Cloud Levels
  • Clear skies
Temperature
-14°C / 7°F
Dewpoint
-19°C / -2°F
Humidity
66%
Altimeter
30.15" Hg
Pressure
1021.02 hPa
Previous

3 hours ago

KVOK 290656Z AUTO 28007KT 10SM CLR M13/M18 A3015 RMK AO2 SLP230 T11261180
Observed
Feb-29 @ 06:56 UTC
Wind
  • 280° at 7 KTS
Visibility
10 SM
Flight Rules
VFR
Cloud Levels
  • Clear skies
Temperature
-13°C / 9°F
Dewpoint
-18°C / -0°F
Humidity
66%
Altimeter
30.15" Hg
Pressure
1021.02 hPa